sensor_id;sensor_type;location;lat;lon;timestamp;P1;durP1;ratioP1;P2;durP2;ratioP2
74912;SDS011;63878;55.624;37.304;2023-01-29T00:00:29;14.70;;;6.78;;
74912;SDS011;63878;55.624;37.304;2023-01-29T00:10:30;18.88;;;8.20;;
74912;SDS011;63878;55.624;37.304;2023-01-29T00:30:30;17.27;;;8.02;;
74912;SDS011;63878;55.624;37.304;2023-01-29T00:40:31;19.63;;;9.00;;
74912;SDS011;63878;55.624;37.304;2023-01-29T00:50:31;14.98;;;8.45;;
74912;SDS011;63878;55.624;37.304;2023-01-29T01:00:32;7.90;;;4.03;;
74912;SDS011;63878;55.624;37.304;2023-01-29T01:20:34;5.82;;;2.67;;
74912;SDS011;63878;55.624;37.304;2023-01-29T01:30:35;6.03;;;3.05;;
74912;SDS011;63878;55.624;37.304;2023-01-29T01:50:47;6.10;;;3.47;;
74912;SDS011;63878;55.624;37.304;2023-01-29T02:11:45;8.02;;;3.80;;
74912;SDS011;63878;55.624;37.304;2023-01-29T02:42:24;7.05;;;3.28;;
74912;SDS011;63878;55.624;37.304;2023-01-29T03:02:45;8.32;;;3.72;;
74912;SDS011;63878;55.624;37.304;2023-01-29T03:12:56;5.22;;;2.70;;
74912;SDS011;63878;55.624;37.304;2023-01-29T03:23:03;7.22;;;3.30;;
74912;SDS011;63878;55.624;37.304;2023-01-29T03:33:10;5.25;;;2.70;;
74912;SDS011;63878;55.624;37.304;2023-01-29T03:43:18;6.32;;;2.95;;
74912;SDS011;63878;55.624;37.304;2023-01-29T03:53:24;4.80;;;2.67;;
74912;SDS011;63878;55.624;37.304;2023-01-29T04:03:35;5.07;;;2.65;;
74912;SDS011;63878;55.624;37.304;2023-01-29T04:13:39;5.40;;;3.33;;
74912;SDS011;63878;55.624;37.304;2023-01-29T04:23:40;5.13;;;3.17;;
74912;SDS011;63878;55.624;37.304;2023-01-29T04:34:27;5.73;;;3.37;;
74912;SDS011;63878;55.624;37.304;2023-01-29T04:44:31;6.13;;;3.10;;
74912;SDS011;63878;55.624;37.304;2023-01-29T04:54:47;6.32;;;2.60;;
74912;SDS011;63878;55.624;37.304;2023-01-29T05:04:54;4.82;;;2.80;;
74912;SDS011;63878;55.624;37.304;2023-01-29T05:14:59;5.75;;;2.53;;
74912;SDS011;63878;55.624;37.304;2023-01-29T05:25:01;5.60;;;2.72;;
74912;SDS011;63878;55.624;37.304;2023-01-29T05:35:02;4.53;;;2.80;;
74912;SDS011;63878;55.624;37.304;2023-01-29T05:55:03;6.07;;;2.50;;
74912;SDS011;63878;55.624;37.304;2023-01-29T06:05:04;4.60;;;2.85;;
74912;SDS011;63878;55.624;37.304;2023-01-29T06:15:05;4.65;;;2.80;;
74912;SDS011;63878;55.624;37.304;2023-01-29T06:25:06;5.57;;;2.72;;
74912;SDS011;63878;55.624;37.304;2023-01-29T06:35:07;4.38;;;2.72;;
74912;SDS011;63878;55.624;37.304;2023-01-29T06:45:08;5.70;;;2.50;;
74912;SDS011;63878;55.624;37.304;2023-01-29T06:55:09;3.92;;;2.17;;
74912;SDS011;63878;55.624;37.304;2023-01-29T07:15:10;5.15;;;2.42;;
74912;SDS011;63878;55.624;37.304;2023-01-29T07:25:11;4.05;;;2.60;;
74912;SDS011;63878;55.624;37.304;2023-01-29T07:45:13;3.97;;;2.28;;
74912;SDS011;63878;55.624;37.304;2023-01-29T07:55:13;5.37;;;2.33;;
74912;SDS011;63878;55.624;37.304;2023-01-29T08:05:20;5.15;;;2.30;;
74912;SDS011;63878;55.624;37.304;2023-01-29T08:15:22;3.65;;;2.08;;
74912;SDS011;63878;55.624;37.304;2023-01-29T08:25:23;5.60;;;2.70;;
74912;SDS011;63878;55.624;37.304;2023-01-29T08:35:28;2.92;;;1.83;;
74912;SDS011;63878;55.624;37.304;2023-01-29T08:45:33;5.50;;;2.03;;
74912;SDS011;63878;55.624;37.304;2023-01-29T08:55:36;3.35;;;2.20;;
74912;SDS011;63878;55.624;37.304;2023-01-29T09:05:39;3.13;;;1.83;;
74912;SDS011;63878;55.624;37.304;2023-01-29T09:15:40;4.68;;;2.17;;
74912;SDS011;63878;55.624;37.304;2023-01-29T09:25:41;6.70;;;2.93;;
74912;SDS011;63878;55.624;37.304;2023-01-29T09:35:43;3.60;;;2.00;;
74912;SDS011;63878;55.624;37.304;2023-01-29T09:45:49;2.70;;;1.65;;
74912;SDS011;63878;55.624;37.304;2023-01-29T10:26:44;3.13;;;2.22;;
74912;SDS011;63878;55.624;37.304;2023-01-29T10:36:46;3.85;;;2.00;;
74912;SDS011;63878;55.624;37.304;2023-01-29T11:08:12;5.40;;;2.97;;
74912;SDS011;63878;55.624;37.304;2023-01-29T11:18:19;5.90;;;3.03;;
74912;SDS011;63878;55.624;37.304;2023-01-29T11:28:38;5.40;;;3.30;;
74912;SDS011;63878;55.624;37.304;2023-01-29T11:38:46;5.25;;;2.80;;
74912;SDS011;63878;55.624;37.304;2023-01-29T11:49:04;5.22;;;3.38;;
74912;SDS011;63878;55.624;37.304;2023-01-29T11:59:05;5.10;;;3.17;;
74912;SDS011;63878;55.624;37.304;2023-01-29T12:09:14;6.57;;;3.33;;
74912;SDS011;63878;55.624;37.304;2023-01-29T12:29:26;7.32;;;3.95;;
74912;SDS011;63878;55.624;37.304;2023-01-29T12:39:36;6.05;;;3.05;;
74912;SDS011;63878;55.624;37.304;2023-01-29T12:49:37;7.93;;;4.00;;
74912;SDS011;63878;55.624;37.304;2023-01-29T12:59:44;7.32;;;4.28;;
74912;SDS011;63878;55.624;37.304;2023-01-29T13:09:52;8.63;;;4.20;;
74912;SDS011;63878;55.624;37.304;2023-01-29T13:30:31;7.57;;;3.83;;
74912;SDS011;63878;55.624;37.304;2023-01-29T13:40:36;12.15;;;5.43;;
74912;SDS011;63878;55.624;37.304;2023-01-29T13:50:37;9.35;;;5.07;;
74912;SDS011;63878;55.624;37.304;2023-01-29T14:10:41;8.97;;;3.73;;
74912;SDS011;63878;55.624;37.304;2023-01-29T14:30:48;9.23;;;4.03;;
74912;SDS011;63878;55.624;37.304;2023-01-29T14:40:48;9.63;;;4.35;;
74912;SDS011;63878;55.624;37.304;2023-01-29T14:50:50;9.75;;;4.85;;
74912;SDS011;63878;55.624;37.304;2023-01-29T15:00:56;9.90;;;4.40;;
74912;SDS011;63878;55.624;37.304;2023-01-29T15:10:59;8.88;;;4.75;;
74912;SDS011;63878;55.624;37.304;2023-01-29T15:21:10;8.57;;;4.15;;
74912;SDS011;63878;55.624;37.304;2023-01-29T15:31:15;10.57;;;5.65;;
74912;SDS011;63878;55.624;37.304;2023-01-29T15:41:18;11.05;;;5.22;;
74912;SDS011;63878;55.624;37.304;2023-01-29T15:51:21;10.63;;;5.05;;
74912;SDS011;63878;55.624;37.304;2023-01-29T16:01:28;10.90;;;4.88;;
74912;SDS011;63878;55.624;37.304;2023-01-29T16:11:31;9.75;;;4.65;;
74912;SDS011;63878;55.624;37.304;2023-01-29T16:21:36;11.98;;;5.28;;
74912;SDS011;63878;55.624;37.304;2023-01-29T16:31:40;8.57;;;4.05;;
74912;SDS011;63878;55.624;37.304;2023-01-29T16:52:17;8.77;;;4.63;;
74912;SDS011;63878;55.624;37.304;2023-01-29T17:02:26;11.05;;;5.55;;
74912;SDS011;63878;55.624;37.304;2023-01-29T17:12:35;12.27;;;5.43;;
74912;SDS011;63878;55.624;37.304;2023-01-29T17:22:39;8.68;;;4.22;;
74912;SDS011;63878;55.624;37.304;2023-01-29T17:32:42;9.20;;;4.43;;
74912;SDS011;63878;55.624;37.304;2023-01-29T17:42:48;10.57;;;4.78;;
74912;SDS011;63878;55.624;37.304;2023-01-29T17:53:02;10.00;;;4.57;;
74912;SDS011;63878;55.624;37.304;2023-01-29T18:03:17;11.68;;;5.40;;
74912;SDS011;63878;55.624;37.304;2023-01-29T18:13:20;10.63;;;5.57;;
74912;SDS011;63878;55.624;37.304;2023-01-29T18:23:21;10.43;;;4.50;;
74912;SDS011;63878;55.624;37.304;2023-01-29T18:43:22;9.50;;;5.07;;
74912;SDS011;63878;55.624;37.304;2023-01-29T18:53:23;8.30;;;4.22;;
74912;SDS011;63878;55.624;37.304;2023-01-29T19:03:24;14.23;;;6.33;;
74912;SDS011;63878;55.624;37.304;2023-01-29T19:13:25;10.07;;;4.97;;
74912;SDS011;63878;55.624;37.304;2023-01-29T19:23:25;10.07;;;4.73;;
74912;SDS011;63878;55.624;37.304;2023-01-29T19:33:26;7.60;;;4.67;;
74912;SDS011;63878;55.624;37.304;2023-01-29T19:43:28;9.45;;;4.30;;
74912;SDS011;63878;55.624;37.304;2023-01-29T19:53:29;7.80;;;4.03;;
74912;SDS011;63878;55.624;37.304;2023-01-29T20:03:30;10.45;;;4.72;;
74912;SDS011;63878;55.624;37.304;2023-01-29T20:13:32;6.40;;;3.60;;
74912;SDS011;63878;55.624;37.304;2023-01-29T20:23:32;7.28;;;3.95;;
74912;SDS011;63878;55.624;37.304;2023-01-29T20:33:33;5.00;;;3.17;;
74912;SDS011;63878;55.624;37.304;2023-01-29T20:43:34;8.43;;;3.85;;
74912;SDS011;63878;55.624;37.304;2023-01-29T20:53:35;7.10;;;3.28;;
74912;SDS011;63878;55.624;37.304;2023-01-29T21:03:37;6.43;;;3.72;;
74912;SDS011;63878;55.624;37.304;2023-01-29T21:13:39;5.88;;;3.55;;
74912;SDS011;63878;55.624;37.304;2023-01-29T21:23:42;6.18;;;3.33;;
74912;SDS011;63878;55.624;37.304;2023-01-29T21:33:44;9.40;;;3.55;;
74912;SDS011;63878;55.624;37.304;2023-01-29T21:43:45;7.43;;;3.50;;
74912;SDS011;63878;55.624;37.304;2023-01-29T22:03:45;12.27;;;4.53;;
74912;SDS011;63878;55.624;37.304;2023-01-29T22:23:47;7.15;;;3.40;;
74912;SDS011;63878;55.624;37.304;2023-01-29T22:33:49;8.60;;;3.67;;
74912;SDS011;63878;55.624;37.304;2023-01-29T22:53:50;8.23;;;4.18;;
74912;SDS011;63878;55.624;37.304;2023-01-29T23:03:52;8.23;;;3.80;;
74912;SDS011;63878;55.624;37.304;2023-01-29T23:13:53;6.90;;;3.43;;
74912;SDS011;63878;55.624;37.304;2023-01-29T23:23:56;8.02;;;3.90;;
74912;SDS011;63878;55.624;37.304;2023-01-29T23:43:56;8.68;;;4.05;;
